Aeroporto :
LOGIN :

Iscrizione | Disclaimer

   EN    FR    IT 

 










Sommario :    VFR   VFR Marginale   IFR   IFR Intensivo   IFR Molto Intensivo
Visibilità : 
Base nubi : 
>= 8 km
>= 3000ft
5 / 8 km
1000 / 3000 ft
1500m / 5 km
500 / 1000 ft
800 / 1500m
200 / 500 ft
< 800m
< 200 ft
Simboli :   Temporali  Nebbia  Neve Forte  Precipitazioni Forti  Vento > 20 kt
SIGMETs :   Varie  Temporali  Ghiacco  Turbolenza  Onda orograficha  Ceneri Vulcaniche






- Altitudine del aeroporto : 76 ft
- Codice IATA : KID


ESMK - Kristianstad

ULTIMO METAR :
  • 220420Z AUTO 12010KT 8000 -DZ FEW003/// OVC005/// 07/07 Q1012

METARs OBSOLETI :
  • 220350Z AUTO 12009KT 2800 -RA FEW003/// SCT004/// BKN006/// 07/07 Q1012
  • 220320Z AUTO 11010KT 3900 -RA SCT005/// BKN007/// OVC013/// 07/06 Q1012
  • 220250Z AUTO 11011KT 6000 -RA FEW006/// BKN015/// 07/06 Q1012 REDZ
  • 220220Z AUTO 11010KT 4400 -RA FEW004/// SCT006/// BKN010/// 07/07 Q1012
  • 220150Z AUTO 11010KT 7000 -RA FEW004/// SCT006/// BKN008/// 07/07 Q1013

TAF TAF ESMK
Valido dal 22 a 05 ore il 22 a 12 ore UTC


220422Z 2205/2212 12010KT 6000 BKN012
TEMPO 2205/2212 2000 RADZ BR BKN004



MetMap, La meteo Aeronautica in un colpo d'occhio ! - Copyright ORBIFLY Dicembre 2007 - Disclaimer

ORBIFLY MET'MAP TEAM :

Programmazione e sviluppo : Alexandra Zaïnal
Concezione e sviluppo : Baudouin d'Aumeries
Co-Programmazione e sviluppo : Marc-Olivier Méhu
Supporto tecnico e logistico : Manuel Goepfert
Aiuto per la traduzione : Arnaldo La Scala

Contatto : metmap@orbifly.com




FONTI E CREDITI :

   NOAA